Parrott, Virginia
Current Conditions -  °F | °C
As of 2:55 PM on Thursday 30 Oct 2014 (Local Time) from KPSK Reporting Station
Clear Clear  
Wind Chill: 54°   Ceiling: Unl
Heat Index: 54°   Visibility: 10mi
Dew Point: 38°   Wind: 3mph
Humidity: 53%   Direction: 60°ENE
Pressure: 30.04"   Gusts: NA
Location:  37.21°N, 80.62°W
Report Text: KPSK 301855Z AUTO 06003KT 10SM CLR 12/03 A3004 RMK AO2 T01240031
Loading
Personal Weather Stations






























Interactive Weather Map
Tropical Storm Tracking
New forecast layout! Learn more

10-Day Weather Forecast

Advertisements
Track Severe Weather on mobile